createdAt,value
2022-12-14T00:01:30.468Z,14.10
2022-12-14T00:03:57.853Z,7.87
2022-12-14T00:06:27.458Z,9.07
2022-12-14T00:08:57.396Z,7.77
2022-12-14T00:11:25.067Z,12.63
2022-12-14T00:13:57.799Z,8.20
2022-12-14T00:16:29.982Z,6.70
2022-12-14T00:18:58.757Z,11.37
2022-12-14T00:21:26.951Z,11.33
2022-12-14T00:23:55.389Z,8.53
2022-12-14T00:26:32.765Z,14.30
2022-12-14T00:29:01.806Z,13.50
2022-12-14T00:31:32.271Z,12.37
2022-12-14T00:34:01.087Z,13.90
2022-12-14T00:36:31.312Z,7.07
2022-12-14T00:38:58.948Z,7.40
2022-12-14T00:41:26.346Z,13.13
2022-12-14T00:43:53.703Z,12.03
2022-12-14T00:46:21.121Z,7.70
2022-12-14T00:48:48.696Z,12.90
2022-12-14T00:51:16.108Z,9.17
2022-12-14T00:53:44.934Z,8.30
2022-12-14T00:56:12.478Z,10.03
2022-12-14T00:58:39.875Z,12.13
2022-12-14T01:01:12.291Z,11.33
2022-12-14T01:03:39.947Z,15.30
2022-12-14T01:06:12.970Z,9.13
2022-12-14T01:08:40.275Z,9.77
2022-12-14T01:11:08.830Z,13.33
2022-12-14T01:13:37.373Z,11.20
2022-12-14T01:16:10.960Z,13.33
2022-12-14T01:18:39.744Z,12.40
2022-12-14T01:21:12.336Z,8.30
2022-12-14T01:23:39.956Z,17.03
2022-12-14T01:26:07.392Z,11.63
2022-12-14T01:28:35.016Z,10.00
2022-12-14T01:31:13.156Z,10.83
2022-12-14T01:33:40.754Z,13.77
2022-12-14T01:36:15.925Z,11.20
2022-12-14T01:38:43.719Z,12.03
2022-12-14T01:41:22.622Z,14.37
2022-12-14T01:43:55.837Z,22.43
2022-12-14T01:46:26.354Z,8.40
2022-12-14T01:48:56.507Z,15.53
2022-12-14T01:51:25.396Z,7.40
2022-12-14T01:53:53.196Z,10.07
2022-12-14T01:56:20.554Z,9.47
2022-12-14T01:58:47.927Z,7.33
2022-12-14T02:01:16.109Z,13.93
2022-12-14T02:03:47.568Z,10.13
2022-12-14T02:06:29.233Z,11.47
2022-12-14T02:08:57.827Z,19.30
2022-12-14T02:11:49.379Z,18.27
2022-12-14T02:14:16.771Z,8.30
2022-12-14T02:16:44.222Z,17.90
2022-12-14T02:19:11.698Z,13.20
2022-12-14T02:21:44.964Z,12.23
2022-12-14T02:24:34.321Z,11.03
2022-12-14T02:27:23.435Z,14.23
2022-12-14T02:30:08.005Z,10.30
2022-12-14T02:32:54.232Z,14.93
2022-12-14T02:36:01.992Z,13.90
2022-12-14T02:38:47.767Z,14.30
2022-12-14T02:41:23.199Z,11.50
2022-12-14T02:44:06.989Z,14.63
2022-12-14T02:47:16.079Z,15.60
2022-12-14T02:49:52.629Z,26.20
2022-12-14T02:52:34.902Z,15.03
2022-12-14T02:55:10.166Z,12.37
2022-12-14T02:57:59.090Z,13.53
2022-12-14T03:00:29.357Z,19.73
2022-12-14T03:02:57.238Z,12.50
2022-12-14T03:05:24.617Z,21.17
2022-12-14T03:07:55.020Z,18.47
2022-12-14T03:10:25.185Z,11.70
2022-12-14T03:13:15.207Z,15.17
2022-12-14T03:15:45.519Z,18.83
2022-12-14T03:18:15.387Z,13.20
2022-12-14T03:20:44.954Z,15.13
2022-12-14T03:23:25.285Z,18.50
2022-12-14T03:26:18.137Z,22.93
2022-12-14T03:29:08.267Z,16.17
2022-12-14T03:31:49.123Z,13.23
2022-12-14T03:34:17.958Z,14.23
2022-12-14T03:36:50.815Z,17.10
2022-12-14T03:39:28.851Z,11.97
2022-12-14T03:42:25.700Z,17.13
2022-12-14T03:45:14.312Z,13.00
2022-12-14T03:47:50.760Z,16.50
2022-12-14T03:50:25.303Z,18.37
2022-12-14T03:52:58.432Z,15.03
2022-12-14T03:55:37.320Z,18.17
2022-12-14T03:58:13.481Z,19.40
2022-12-14T04:01:06.129Z,19.07
2022-12-14T04:04:04.981Z,16.57
2022-12-14T04:06:41.324Z,13.50
2022-12-14T04:09:20.939Z,27.07
2022-12-14T04:12:13.932Z,16.63
2022-12-14T04:15:08.710Z,16.77
2022-12-14T04:17:56.560Z,22.90
2022-12-14T04:20:26.976Z,20.40
2022-12-14T04:22:59.556Z,18.07
2022-12-14T04:25:52.111Z,27.23
2022-12-14T04:28:41.097Z,10.33
2022-12-14T04:31:14.919Z,16.17
2022-12-14T04:33:56.595Z,21.80
2022-12-14T04:36:43.896Z,23.80
2022-12-14T04:39:17.767Z,48.47
2022-12-14T04:41:49.587Z,32.43
2022-12-14T04:44:25.123Z,20.90
2022-12-14T04:46:54.315Z,17.10
2022-12-14T04:49:40.437Z,22.30
2022-12-14T04:52:15.757Z,14.60
2022-12-14T04:55:04.951Z,26.87
2022-12-14T04:57:38.808Z,19.97
2022-12-14T05:00:06.751Z,17.10
2022-12-14T05:02:55.834Z,16.83
2022-12-14T05:05:31.293Z,27.73
2022-12-14T05:08:10.582Z,22.50
2022-12-14T05:10:41.989Z,25.70
2022-12-14T05:13:18.958Z,8.70
2022-12-14T05:15:54.749Z,23.10
2022-12-14T05:18:22.351Z,22.70
2022-12-14T05:20:50.112Z,27.13
2022-12-14T05:23:18.032Z,26.17
2022-12-14T05:25:45.435Z,24.63
2022-12-14T05:28:16.585Z,22.37
2022-12-14T05:30:49.093Z,30.17
2022-12-14T05:33:20.749Z,23.17
2022-12-14T05:35:48.216Z,20.77
2022-12-14T05:38:15.549Z,23.17
2022-12-14T05:40:42.855Z,15.70
2022-12-14T05:43:12.300Z,27.60
2022-12-14T05:45:39.730Z,24.67
2022-12-14T05:48:07.246Z,15.73
2022-12-14T05:50:34.607Z,26.87
2022-12-14T05:53:02.400Z,25.70
2022-12-14T05:55:29.925Z,22.13
2022-12-14T05:57:57.317Z,37.20
2022-12-14T06:00:24.774Z,30.50
2022-12-14T06:02:52.175Z,24.70
2022-12-14T06:05:19.639Z,34.40
2022-12-14T06:07:46.941Z,26.37
2022-12-14T06:10:14.420Z,23.17
2022-12-14T06:12:41.799Z,22.83
2022-12-14T06:15:09.485Z,28.40
2022-12-14T06:17:37.544Z,21.97
2022-12-14T06:20:05.308Z,28.37
2022-12-14T06:22:32.627Z,25.70
2022-12-14T06:24:59.968Z,31.67
2022-12-14T06:27:27.303Z,21.77
2022-12-14T06:29:54.651Z,13.40
2022-12-14T06:32:22.412Z,34.50
2022-12-14T06:34:49.815Z,27.40
2022-12-14T06:37:17.140Z,37.10
2022-12-14T06:39:45.709Z,27.73
2022-12-14T06:42:20.290Z,30.97
2022-12-14T06:44:47.656Z,23.83
2022-12-14T06:47:15.075Z,29.47
2022-12-14T06:49:42.396Z,33.33
2022-12-14T06:52:10.556Z,38.63
2022-12-14T06:54:37.906Z,30.83
2022-12-14T06:57:05.219Z,26.97
2022-12-14T06:59:32.578Z,35.50
2022-12-14T07:02:00.057Z,22.57
2022-12-14T07:04:27.912Z,34.00
2022-12-14T07:06:55.260Z,34.10
2022-12-14T07:09:22.563Z,31.10
2022-12-14T07:11:51.544Z,28.87
2022-12-14T07:14:19.135Z,30.13
2022-12-14T07:16:48.691Z,44.93
2022-12-14T07:19:16.838Z,37.33
2022-12-14T07:21:44.254Z,32.97
2022-12-14T07:24:11.599Z,30.20
2022-12-14T07:26:38.948Z,40.07
2022-12-14T07:29:06.647Z,35.23
2022-12-14T07:31:34.144Z,38.00
2022-12-14T07:34:01.573Z,36.27
2022-12-14T07:36:30.000Z,34.33
2022-12-14T07:38:57.550Z,35.40
2022-12-14T07:41:26.937Z,37.97
2022-12-14T07:43:55.523Z,36.93
2022-12-14T07:46:25.145Z,26.90
2022-12-14T07:48:54.791Z,36.17
2022-12-14T07:51:24.424Z,37.03
2022-12-14T07:53:52.219Z,27.60
2022-12-14T07:56:40.054Z,41.70
2022-12-14T07:59:09.675Z,33.93
2022-12-14T08:01:37.815Z,37.40
2022-12-14T08:04:11.171Z,36.83
2022-12-14T08:06:39.318Z,40.33
2022-12-14T08:09:07.741Z,35.13
2022-12-14T08:11:35.340Z,34.43
2022-12-14T08:14:08.420Z,41.97
2022-12-14T08:16:35.828Z,36.83
2022-12-14T08:19:03.330Z,44.10
2022-12-14T08:21:30.938Z,35.23
2022-12-14T08:23:58.866Z,34.90
2022-12-14T08:26:31.664Z,32.40
2022-12-14T08:29:00.754Z,32.13
2022-12-14T08:31:28.586Z,38.67
2022-12-14T08:33:56.441Z,50.10
2022-12-14T08:36:33.133Z,47.10
2022-12-14T08:39:03.599Z,36.57
2022-12-14T08:41:31.020Z,36.13
2022-12-14T08:43:59.997Z,38.07
2022-12-14T08:46:29.535Z,37.07
2022-12-14T08:48:57.579Z,42.93
2022-12-14T08:51:25.951Z,34.90
2022-12-14T08:53:54.178Z,36.27
2022-12-14T08:56:23.874Z,35.90
2022-12-14T08:58:51.690Z,40.23
2022-12-14T09:01:30.315Z,45.90
2022-12-14T09:04:04.846Z,44.20
2022-12-14T09:06:35.129Z,37.70
2022-12-14T09:09:02.701Z,40.00
2022-12-14T09:11:30.073Z,43.63
2022-12-14T09:13:58.055Z,55.50
2022-12-14T09:16:26.351Z,42.03
2022-12-14T09:18:54.656Z,46.37
2022-12-14T09:21:22.308Z,52.03
2022-12-14T09:23:55.592Z,39.00
2022-12-14T09:26:26.592Z,39.80
2022-12-14T09:28:55.396Z,48.30
2022-12-14T09:31:25.147Z,55.77
2022-12-14T09:33:52.853Z,49.07
2022-12-14T09:36:22.336Z,37.73
2022-12-14T09:38:52.268Z,46.90
2022-12-14T09:41:35.041Z,44.97
2022-12-14T09:44:14.693Z,49.83
2022-12-14T09:47:08.635Z,58.63
2022-12-14T09:50:05.093Z,53.70
2022-12-14T09:52:41.134Z,47.07
2022-12-14T09:55:20.732Z,44.17
2022-12-14T09:57:51.164Z,48.13
2022-12-14T10:00:19.985Z,47.80
2022-12-14T10:03:33.126Z,54.50
2022-12-14T10:06:30.862Z,49.80
2022-12-14T10:09:02.946Z,51.03
2022-12-14T10:12:07.393Z,50.40
2022-12-14T10:15:02.050Z,47.73
2022-12-14T10:17:36.046Z,46.63
2022-12-14T10:20:16.990Z,49.83
2022-12-14T10:22:46.836Z,42.50
2022-12-14T10:25:17.096Z,46.60
2022-12-14T10:30:40.496Z,48.17
2022-12-14T10:33:26.859Z,45.80
2022-12-14T10:35:56.516Z,57.97
2022-12-14T10:38:39.155Z,48.90
2022-12-14T10:41:23.408Z,43.90
2022-12-14T10:44:19.436Z,44.23
2022-12-14T10:47:12.167Z,51.83
2022-12-14T10:49:54.888Z,44.73
2022-12-14T10:52:25.860Z,40.80
2022-12-14T10:55:14.094Z,44.50
2022-12-14T10:57:41.616Z,58.23
2022-12-14T11:00:23.181Z,51.23
2022-12-14T11:02:57.465Z,50.73
2022-12-14T11:05:41.509Z,49.97
2022-12-14T11:08:09.249Z,47.60
2022-12-14T11:10:40.825Z,55.17
2022-12-14T11:13:17.402Z,46.90
2022-12-14T11:15:46.476Z,64.30
2022-12-14T11:18:16.726Z,61.10
2022-12-14T11:20:56.591Z,53.60
2022-12-14T11:23:37.931Z,53.77
2022-12-14T11:26:15.418Z,49.53
2022-12-14T11:28:59.072Z,46.47
2022-12-14T11:31:38.116Z,48.93
2022-12-14T11:34:07.275Z,60.00
2022-12-14T11:36:41.699Z,50.70
2022-12-14T11:39:15.440Z,43.73
2022-12-14T11:41:46.940Z,55.27
2022-12-14T11:44:17.393Z,64.13
2022-12-14T11:46:46.004Z,55.07
2022-12-14T11:49:43.102Z,54.33
2022-12-14T11:52:22.413Z,47.17
2022-12-14T11:54:52.719Z,50.23
2022-12-14T11:57:26.033Z,43.40
2022-12-14T11:59:59.582Z,42.90
2022-12-14T12:02:38.612Z,42.00
2022-12-14T12:05:16.344Z,48.20
2022-12-14T12:07:49.285Z,48.63
2022-12-14T12:10:26.680Z,48.13
2022-12-14T12:13:02.662Z,54.10
2022-12-14T12:15:41.563Z,54.67
2022-12-14T12:18:18.440Z,41.40
2022-12-14T12:20:58.037Z,57.63
2022-12-14T12:23:48.439Z,60.63
2022-12-14T12:26:23.954Z,52.40
2022-12-14T12:29:06.942Z,56.93
2022-12-14T12:31:40.853Z,43.50
2022-12-14T12:34:19.772Z,44.50
2022-12-14T12:37:24.142Z,50.33
2022-12-14T12:39:35.991Z,53.07
2022-12-14T12:42:48.584Z,49.03
2022-12-14T12:45:35.575Z,44.97
2022-12-14T12:48:20.944Z,40.13
2022-12-14T12:50:51.241Z,48.00
2022-12-14T12:53:53.832Z,42.43
2022-12-14T12:56:24.115Z,41.47
2022-12-14T12:58:53.083Z,36.43
2022-12-14T13:01:29.521Z,45.40
2022-12-14T13:04:01.964Z,43.17
2022-12-14T13:06:44.764Z,39.33
2022-12-14T13:09:43.326Z,58.97
2022-12-14T13:12:37.169Z,37.10
2022-12-14T13:15:13.668Z,43.60
2022-12-14T13:17:46.782Z,56.20
2022-12-14T13:20:22.970Z,53.67
2022-12-14T13:22:50.836Z,53.17
2022-12-14T13:25:43.081Z,52.77
2022-12-14T13:28:16.018Z,43.27
2022-12-14T13:31:07.729Z,41.63
2022-12-14T13:33:54.385Z,48.47
2022-12-14T13:37:04.433Z,46.83
2022-12-14T13:39:37.534Z,45.30
2022-12-14T13:42:18.855Z,55.70
2022-12-14T13:44:59.085Z,55.63
2022-12-14T13:47:31.791Z,52.60
2022-12-14T13:52:49.516Z,52.10
2022-12-14T13:55:35.789Z,57.70
2022-12-14T13:58:41.856Z,54.27
2022-12-14T14:01:47.757Z,45.90
2022-12-14T14:04:19.575Z,51.90
2022-12-14T14:06:51.736Z,48.30
2022-12-14T14:09:46.999Z,55.37
2022-12-14T14:12:33.433Z,56.33
2022-12-14T14:15:28.215Z,48.80
2022-12-14T14:17:58.308Z,51.90
2022-12-14T14:20:41.040Z,55.93
2022-12-14T14:23:14.582Z,50.43
2022-12-14T14:25:48.638Z,59.50
2022-12-14T14:28:23.031Z,56.20
2022-12-14T14:30:53.415Z,63.30
2022-12-14T14:33:48.431Z,55.53
2022-12-14T14:36:26.891Z,54.50
2022-12-14T14:38:56.047Z,52.33
2022-12-14T14:41:44.873Z,51.77
2022-12-14T14:44:36.588Z,65.60
2022-12-14T14:47:12.106Z,60.83
2022-12-14T14:49:41.600Z,55.40
2022-12-14T14:52:40.006Z,65.80
2022-12-14T14:55:52.096Z,64.67
2022-12-14T14:58:28.070Z,70.73
2022-12-14T15:01:06.817Z,63.87
2022-12-14T15:04:04.726Z,81.03
2022-12-14T15:06:40.389Z,67.43
2022-12-14T15:09:20.597Z,60.77
2022-12-14T15:11:51.890Z,96.13
2022-12-14T15:14:34.966Z,81.57
2022-12-14T15:17:22.001Z,86.43
2022-12-14T15:19:56.616Z,83.00
2022-12-14T15:22:30.646Z,74.03
2022-12-14T15:25:02.048Z,61.33
2022-12-14T15:27:39.710Z,71.53
2022-12-14T15:30:13.843Z,73.07
2022-12-14T15:32:47.675Z,77.90
2022-12-14T15:35:18.813Z,87.93
2022-12-14T15:37:56.433Z,82.53
2022-12-14T15:40:30.467Z,73.47
2022-12-14T15:43:00.622Z,65.80
2022-12-14T15:45:32.121Z,80.10
2022-12-14T15:48:30.836Z,82.47
2022-12-14T15:51:07.108Z,75.50
2022-12-14T15:53:37.283Z,79.63
2022-12-14T15:56:14.076Z,87.70
2022-12-14T15:58:41.880Z,70.33
2022-12-14T16:01:22.299Z,60.47
2022-12-14T16:04:10.925Z,75.50
2022-12-14T16:06:40.887Z,66.43
2022-12-14T16:09:13.525Z,68.00
2022-12-14T16:11:42.163Z,61.80
2022-12-14T16:14:22.272Z,62.23
2022-12-14T16:16:49.917Z,65.90
2022-12-14T16:19:27.927Z,72.50
2022-12-14T16:22:24.765Z,78.43
2022-12-14T16:25:21.404Z,82.07
2022-12-14T16:27:50.571Z,62.77
2022-12-14T16:30:22.759Z,70.57
2022-12-14T16:32:52.682Z,83.57
2022-12-14T16:35:26.519Z,92.00
2022-12-14T16:37:57.971Z,97.60
2022-12-14T16:40:35.117Z,80.87
2022-12-14T16:43:04.096Z,94.37
2022-12-14T16:45:45.211Z,83.60
2022-12-14T16:48:22.106Z,73.93
2022-12-14T16:51:01.803Z,69.23
2022-12-14T16:53:32.159Z,74.80
2022-12-14T16:56:07.192Z,67.27
2022-12-14T16:58:36.790Z,77.87
2022-12-14T17:01:06.602Z,69.73
2022-12-14T17:03:34.833Z,72.10
2022-12-14T17:06:05.536Z,70.60
2022-12-14T17:08:34.204Z,89.93
2022-12-14T17:11:02.320Z,79.50
2022-12-14T17:13:30.261Z,84.30
2022-12-14T17:16:06.262Z,84.07
2022-12-14T17:18:37.593Z,89.37
2022-12-14T17:21:06.803Z,79.93
2022-12-14T17:23:40.289Z,90.00
2022-12-14T17:26:09.395Z,73.47
2022-12-14T17:28:36.724Z,109.43
2022-12-14T17:31:04.320Z,101.30
2022-12-14T17:33:32.450Z,122.17
2022-12-14T17:36:00.138Z,109.10
2022-12-14T17:38:27.521Z,113.40
2022-12-14T17:40:55.893Z,97.13
2022-12-14T17:43:26.725Z,91.67
2022-12-14T17:45:54.836Z,101.77
2022-12-14T17:48:22.378Z,79.07
2022-12-14T17:50:50.699Z,74.60
2022-12-14T17:53:20.805Z,58.70
2022-12-14T17:55:48.452Z,57.53
2022-12-14T17:58:16.674Z,53.80
2022-12-14T18:01:03.191Z,56.80
2022-12-14T18:03:36.062Z,70.10
2022-12-14T18:06:04.697Z,70.70
2022-12-14T18:08:32.084Z,61.07
2022-12-14T18:11:02.976Z,61.93
2022-12-14T18:13:34.304Z,58.60
2022-12-14T18:16:02.005Z,69.63
2022-12-14T18:18:29.636Z,59.53
2022-12-14T18:21:00.460Z,58.97
2022-12-14T18:23:28.818Z,61.33
2022-12-14T18:26:00.627Z,55.93
2022-12-14T18:28:30.133Z,59.90
2022-12-14T18:31:02.215Z,73.20
2022-12-14T18:33:30.092Z,63.17
2022-12-14T18:35:58.136Z,58.00
2022-12-14T18:38:26.119Z,57.77
2022-12-14T18:40:55.196Z,64.13
2022-12-14T18:43:25.059Z,60.57
2022-12-14T18:45:53.856Z,72.10
2022-12-14T18:48:22.298Z,65.37
2022-12-14T18:50:50.373Z,57.93
2022-12-14T18:53:19.808Z,64.90
2022-12-14T18:55:48.045Z,54.80
2022-12-14T18:58:17.642Z,74.37
2022-12-14T19:00:45.765Z,61.50
2022-12-14T19:03:15.214Z,50.30
2022-12-14T19:05:42.914Z,63.80
2022-12-14T19:08:11.491Z,58.03
2022-12-14T19:10:41.958Z,52.00
2022-12-14T19:13:21.761Z,52.80
2022-12-14T19:15:52.873Z,70.47
2022-12-14T19:18:20.610Z,57.00
2022-12-14T19:20:49.365Z,56.27
2022-12-14T19:23:18.749Z,56.30
2022-12-14T19:25:46.680Z,61.67
2022-12-14T19:28:31.340Z,54.87
2022-12-14T19:31:00.898Z,64.37
2022-12-14T19:33:29.164Z,58.33
2022-12-14T19:35:56.750Z,61.40
2022-12-14T19:38:24.180Z,71.40
2022-12-14T19:41:12.346Z,56.30
2022-12-14T19:43:39.793Z,84.73
2022-12-14T19:46:08.865Z,63.63
2022-12-14T19:48:36.717Z,62.00
2022-12-14T19:51:14.262Z,55.40
2022-12-14T19:53:42.835Z,60.17
2022-12-14T19:56:10.809Z,74.77
2022-12-14T19:58:38.623Z,57.70
2022-12-14T20:01:10.838Z,69.03
2022-12-14T20:03:39.050Z,68.53
2022-12-14T20:06:07.224Z,67.70
2022-12-14T20:08:35.442Z,65.77
2022-12-14T20:11:08.022Z,57.17
2022-12-14T20:13:35.816Z,59.20
2022-12-14T20:16:03.384Z,68.73
2022-12-14T20:18:32.082Z,69.63
2022-12-14T20:21:08.250Z,80.50
2022-12-14T20:23:37.147Z,72.10
2022-12-14T20:26:11.308Z,64.50
2022-12-14T20:28:38.731Z,60.80
2022-12-14T20:31:07.973Z,82.83
2022-12-14T20:33:35.892Z,78.83
2022-12-14T20:36:03.727Z,71.83
2022-12-14T20:38:31.177Z,74.70
2022-12-14T20:41:04.953Z,78.63
2022-12-14T20:43:41.085Z,81.60
2022-12-14T20:46:26.305Z,74.07
2022-12-14T20:48:54.344Z,94.37
2022-12-14T20:51:21.861Z,76.27
2022-12-14T20:53:49.538Z,90.33
2022-12-14T20:56:16.923Z,93.67
2022-12-14T20:58:48.283Z,109.43
2022-12-14T21:01:16.936Z,102.57
2022-12-14T21:03:46.837Z,100.23
2022-12-14T21:06:16.771Z,79.63
2022-12-14T21:09:05.375Z,89.27
2022-12-14T21:11:52.917Z,101.83
2022-12-14T21:14:21.522Z,70.47
2022-12-14T21:16:49.063Z,70.53
2022-12-14T21:19:16.745Z,68.27
2022-12-14T21:21:49.711Z,78.53
2022-12-14T21:24:37.380Z,56.87
2022-12-14T21:27:08.627Z,64.93
2022-12-14T21:29:36.013Z,72.33
2022-12-14T21:32:04.352Z,62.77
2022-12-14T21:34:32.773Z,80.20
2022-12-14T21:37:00.332Z,80.63
2022-12-14T21:39:27.648Z,92.13
2022-12-14T21:42:13.971Z,81.40
2022-12-14T21:44:46.386Z,66.53
2022-12-14T21:47:26.092Z,72.47
2022-12-14T21:49:53.683Z,58.00
2022-12-14T21:52:23.445Z,60.03
2022-12-14T21:54:51.015Z,55.50
2022-12-14T21:57:40.243Z,56.80
2022-12-14T22:00:09.462Z,61.50
2022-12-14T22:02:40.268Z,66.40
2022-12-14T22:05:08.160Z,71.23
2022-12-14T22:07:36.346Z,69.97
2022-12-14T22:10:03.888Z,67.43
2022-12-14T22:12:31.441Z,63.77
2022-12-14T22:14:58.824Z,47.47
2022-12-14T22:17:26.255Z,76.20
2022-12-14T22:19:55.159Z,63.63
2022-12-14T22:22:22.880Z,66.20
2022-12-14T22:24:51.229Z,69.07
2022-12-14T22:27:19.357Z,70.83
2022-12-14T22:29:46.720Z,76.13
2022-12-14T22:32:14.768Z,70.27
2022-12-14T22:34:42.317Z,76.93
2022-12-14T22:37:09.661Z,66.10
2022-12-14T22:39:36.621Z,65.10
2022-12-14T22:42:03.629Z,58.63
2022-12-14T22:44:30.595Z,67.50
2022-12-14T22:46:57.786Z,70.90
2022-12-14T22:49:24.876Z,56.90
2022-12-14T22:51:51.861Z,61.77
2022-12-14T22:54:25.396Z,61.07
2022-12-14T22:57:10.471Z,60.53
2022-12-14T22:59:44.166Z,72.03
2022-12-14T23:02:11.416Z,62.20
2022-12-14T23:04:38.963Z,69.60
2022-12-14T23:07:06.373Z,59.53
2022-12-14T23:09:52.165Z,67.90
2022-12-14T23:12:38.028Z,60.17
2022-12-14T23:15:24.395Z,66.10
2022-12-14T23:18:16.332Z,55.20
2022-12-14T23:21:01.605Z,62.67
2022-12-14T23:23:47.221Z,69.63
2022-12-14T23:26:32.845Z,57.07
2022-12-14T23:29:18.739Z,69.00
2022-12-14T23:32:04.129Z,64.67
2022-12-14T23:34:49.593Z,67.97
2022-12-14T23:37:35.181Z,70.67
2022-12-14T23:40:20.829Z,61.10
2022-12-14T23:43:06.177Z,61.83
2022-12-14T23:45:51.465Z,67.83
2022-12-14T23:48:36.809Z,66.27
2022-12-14T23:51:22.520Z,63.50
2022-12-14T23:54:08.114Z,60.97
2022-12-14T23:56:54.476Z,59.17
2022-12-14T23:59:39.740Z,60.83
